• Join FlightAware (Why Join?)
  • Login
  • US Flag 
09:29PM EDT


 

Airport Tracker/Info


-or-


 

Live Flight TrackerFlight Track Log ✈ ASQ5575 ✈ 22-May-2012 ✈ KILM - KATL

Flight Track Log - Related Links

Times and Time Zones

All times are in EDT time to prevent confusion due to time zone crossing. See the ASQ5575 flight status page for this flight to view local times or setup timezone preferences in your user account.

Time Position Orientation Groundspeed Altitude Reporting Facility
EDT Latitude Longitude Course Direction KTS MPH feet Rate Location/Type
07:21AM 34.3850 -77.9222 334° Northwest 217 250 4,200  Level Washington Center
07:24AM 34.5953 -78.0444 335° Northwest 273 314 11,100 2,040 Climbing Washington Center
07:25AM 34.6736 -78.0897 336° Northwest 295 339 12,500 1,440 Climbing Washington Center
07:26AM 34.7622 -78.1378 334° Northwest 321 369 14,000 1,440 Climbing Washington Center
07:27AM 34.8489 -78.1886 335° Northwest 337 388 15,400 1,380 Climbing Washington Center
07:28AM 34.9500 -78.2450 335° Northwest 355 409 16,800 1,260 Climbing Washington Center
07:29AM 35.0447 -78.2989 335° Northwest 361 415 18,000 1,140 Climbing Washington Center
07:31AM 35.2342 -78.4094 334° Northwest 381 438 20,400 1,080 Climbing Washington Center
07:32AM 35.3308 -78.4664 334° Northwest 381 438 21,400 960 Climbing Washington Center
07:33AM 35.4294 -78.5261 335° Northwest 381 438 22,400 900 Climbing Washington Center
07:34AM 35.5158 -78.5750 335° Northwest 381 438 23,200 780 Climbing Washington Center
07:35AM 35.6186 -78.6353 335° Northwest 395 455 24,000 780 Climbing Washington Center
07:36AM 35.7256 -78.6981 333° Northwest 395 455 24,800 780 Climbing Washington Center
07:37AM 35.8242 -78.7608 288° West 400 460 25,600 840 Climbing Washington Center
07:38AM 35.8564 -78.8800 251° West 347 399 26,500 660 Climbing Washington Center
07:39AM 35.8194 -79.0092 251° West 340 391 27,000 480 Climbing Washington Center
07:40AM 35.7842 -79.1383 252° West 376 433 27,500 300 Climbing Washington Center
07:42AM 35.7031 -79.4383 253° West 404 465 28,000 120 Climbing Atlanta Center
07:43AM 35.6683 -79.5756 252° West 418 481 28,000  Level Atlanta Center
07:44AM 35.6353 -79.7000 252° West 423 487 28,000  Level Atlanta Center
07:45AM 35.5983 -79.8375 254° West 428 493 28,000  Level Atlanta Center
07:46AM 35.5656 -79.9769 251° West 428 493 28,000  Level Atlanta Center
07:47AM 35.5225 -80.1297 252° West 428 493 28,000  Level Atlanta Center
07:48AM 35.4872 -80.2664 252° West 428 493 28,000  Level Atlanta Center
07:49AM 35.4497 -80.4083 252° West 433 498 28,000  Level Atlanta Center
07:50AM 35.4119 -80.5478 252° West 432 497 28,000  Level Atlanta Center
07:51AM 35.3742 -80.6894 251° West 432 497 28,000  Level Atlanta Center
07:52AM 35.3361 -80.8283 251° West 432 497 28,000  Level Atlanta Center
07:53AM 35.2961 -80.9700 253° West 432 497 28,000  Level Atlanta Center
07:54AM 35.2636 -81.0983 251° West 432 497 28,000  Level Atlanta Center
07:55AM 35.2253 -81.2369 251° West 437 503 28,000  Level Atlanta Center
07:56AM 35.1844 -81.3781 252° West 437 503 28,000  Level Atlanta Center
07:57AM 35.1439 -81.5319 252° West 442 509 28,000  Level Atlanta Center
07:58AM 35.1050 -81.6750 251° West 447 514 28,000  Level Atlanta Center
07:59AM 35.0658 -81.8158 251° West 447 514 28,000  Level Atlanta Center
08:00AM 35.0267 -81.9564 254° West 447 514 28,000  Level Atlanta Center
08:01AM 34.9933 -82.0942 254° West 442 509 28,000  Level Atlanta Center
08:02AM 34.9603 -82.2367 252° West 442 509 28,000  Level Atlanta Center
08:03AM 34.9244 -82.3744 254° West 442 509 28,000  Level Atlanta Center
08:04AM 34.8908 -82.5169 250° West 442 509 28,000 -60 Level Atlanta Center
08:05AM 34.8486 -82.6569 232° Southwest 442 509 27,900 -600 Descending Atlanta Center
08:06AM 34.7708 -82.7769 232° Southwest 442 509 26,900 -1,020 Descending Atlanta Center
08:07AM 34.6947 -82.8969 231° Southwest 452 520 25,900 -1,020 Descending Atlanta Center
08:08AM 34.6228 -83.0064 232° Southwest 463 533 24,900 -960 Descending Atlanta Center
08:09AM 34.5361 -83.1411 232° Southwest 469 540 24,000 -720 Descending Atlanta Center
08:10AM 34.4597 -83.2578 234° Southwest 461 531 23,500 -1,560 Descending Atlanta Center
08:11AM 34.3872 -83.3767 232° Southwest 456 525 20,900 -2,640 Descending Atlanta Center
08:12AM 34.3147 -83.4906 231° Southwest 439 505 18,300 -2,640 Descending Atlanta Center
08:13AM 34.2442 -83.5964 234° Southwest 424 488 15,700 -2,580 Descending Atlanta Center
08:14AM 34.1800 -83.7022 232° Southwest 410 472 13,200 -1,860 Descending Atlanta Center
08:15AM 34.1156 -83.8003 227° Southwest 392 451 12,000 -780 Descending Atlanta Center
08:16AM 34.0592 -83.8733 220° Southwest 337 388 11,700 -780 Descending Atlanta Center
08:17AM 33.9833 -83.9500 180° South 279 321 10,300 -960 Descending Atlanta TRACON
08:18AM 33.9167 -83.9500 183° South 291 335 9,700 -780 Descending Atlanta TRACON
08:19AM 33.8486 -83.9536 182° South 281 323 9,000 -420 Descending Atlanta Center
08:20AM 33.7714 -83.9564 202° Southwest 286 329 9,000 -600 Level Atlanta Center
08:21AM 33.6983 -83.9914 218° Southwest 281 323 7,800 -1,200 Descending Atlanta Center
08:22AM 33.6378 -84.0489 261° West 260 299 6,700 -960 Descending Atlanta Center
08:23AM 33.6294 -84.1111 275° West 198 228 5,900 -960 Descending Atlanta Center
08:24AM 33.6333 -84.1667 270° West 192 221 4,900 -1,020 Descending Atlanta TRACON
08:25AM 33.6333 -84.2167 270° West 185 213 4,100 -900 Descending Atlanta TRACON
08:26AM 33.6333 -84.2833 270° West 180 207 3,200 -960 Descending Atlanta TRACON
08:27AM 33.6333 -84.3333 270° West 159 183 2,300 -900 Descending Atlanta TRACON
08:28AM 33.6333 -84.3833 275° West 140 161 1,600 -780 Descending Atlanta TRACON
08:36AM 33.7126 -85.4947 275° West  Level Estimated